Main page
METAR-TAF:

METAR-TAF

Airports :

Midland International Air and Space Port

Midland, Texas, United States

latitude: 31-56-52N, longitude: 102-12-31W, elevation: 2870 ft

Current weather observation

The report was made 1 hour and 5 minutes ago, at 01:53 UTC
Wind 6 mph from the South/Southeast
Temperature 46°F
Humidity 49%
Pressure 30.31 in. Hg
Visibility: 10 miles
Clear sky

METAR: KMAF 150153Z 16005KT 10SM CLR 08/M02 A3031 RMK AO2 SLP263 T00781017

Time: 20:58 (02:58 UTC)

Forecast

The report was made 3 hours and 38 minutes ago, at 23:20 UTC
Forecast valid from 15 at 00 UTC to 15 at 24 UTC
Wind 10 mph from the Southwest
Visibility: 6 miles
Clear sky

TAF: KMAF 142320Z 1500/1524 23009KT P6SM SKC

Weather observations and forecasts of more than 4000 airports (METAR and TAF reports).

The available stations are represented by yellow and red dots on the map.

Hover mouse over dot to see the name of the station.

Then click to see weather observations and forecasts.

To change the map : click on the green buttons with a black cross to zoom in, on the green button with a dash to zoom out, or on the green arrows for adjacent maps.


METAR-TAF: